Latest Weather Observations for Horsham

IDV60801

Issued at 5:31 pm EST Sunday 24 May 2015 (issued every 30 minutes, with the page automatically refreshed every 10 minutes)

About weather observations | Map of weather stations | Latest weather observations for VIC | Other Formats
Station Details ID: 079100 Name: HORSHAM AERODROME Lat: -36.67 Lon: 142.17 Height: 133.8 m
Data from the previous 72 hours. | See also: Recent months at Horsham
Date/Time
EST
Temp
°C
App
Temp
°C
Dew
Point
Rel
Hum
%
Delta-T
°C
Wind Press
QNH
hPa
Press
MSL
hPa
Rain
since 9 am
mm
Dir
 
Spd
km/h
Gust
km/h
Spd
kts
Gust
kts
24/05:30pm 12.9 10.8 5.6 61 3.4 W 6 9 3 5 1029.5 1029.6 0.0
24/05:00pm 13.8 11.6 5.2 56 4.0 NNW 6 9 3 5 1029.3 1029.4 0.0
24/04:30pm 14.5 11.0 5.3 54 4.4 N 13 17 7 9 1029.3 1029.4 0.0
24/04:00pm 15.1 11.2 5.3 52 4.6 N 15 19 8 10 1029.3 1029.4 0.0
24/03:30pm 14.7 10.8 5.2 53 4.5 N 15 20 8 11 1029.0 1029.2 0.0
24/03:00pm 14.5 11.3 5.3 54 4.3 NNE 11 17 6 9 1029.0 1029.2 0.0
24/02:30pm 14.4 11.0 5.7 56 4.2 NNE 13 19 7 10 1029.3 1029.4 0.0
24/02:00pm 13.9 10.5 6.0 59 3.8 N 13 20 7 11 1029.5 1029.6 0.0
24/01:30pm 14.4 11.0 6.0 57 4.0 N 13 20 7 11 1029.8 1029.9 0.0
24/01:00pm 13.6 9.5 6.0 60 3.6 N 17 24 9 13 1030.1 1030.2 0.0
24/12:30pm 14.3 10.4 7.1 62 3.5 N 17 22 9 12 1030.2 1030.3 0.0
24/12:00pm 12.6 8.9 6.2 65 3.0 NNE 15 22 8 12 1030.5 1030.6 0.0
24/11:30am 11.7 8.0 6.2 69 2.6 NNE 15 20 8 11 1030.8 1030.9 0.0
24/11:00am 10.5 6.5 6.5 76 1.9 NE 17 22 9 12 1031.0 1031.1 0.0
24/10:30am 9.9 5.5 6.6 80 1.5 NE 19 22 10 12 1031.6 1031.7 0.0
24/10:00am 8.4 3.9 6.2 86 1.0 NE 19 22 10 12 1031.4 1031.5 0.0
24/09:30am 7.6 3.0 6.7 94 0.4 NE 20 22 11 12 1031.4 1031.5 0.0
24/09:00am 5.1 1.5 4.8 98 0.1 ENE 13 17 7 9 1031.3 1031.4 0.0
24/08:30am 2.2 -1.2 1.9 98 0.1 ENE 9 11 5 6 1031.3 1031.4 0.0
24/08:00am 0.9 -2.7 0.6 98 0.1 E 9 9 5 5 1031.3 1031.4 0.0
24/07:30am -0.1 -4.6 -0.4 98 0.1 ENE 13 15 7 8 1030.9 1031.0 0.0
24/07:00am 0.3 -4.9 0.0 98 0.1 ENE 17 17 9 9 1030.8 1030.9 0.0
24/06:36am 0.9 -4.2 0.6 98 0.1 ENE 17 17 9 9 1030.4 1030.5 0.0
24/06:30am 0.7 -4.5 0.4 98 0.1 ENE 17 17 9 9 1030.5 1030.6 0.0
24/06:22am -0.2 -4.7 -0.5 98 0.1 ENE 13 17 7 9 1030.3 1030.4 0.0
24/06:13am -0.3 -5.2 -0.6 98 0.1 E 15 15 8 8 1030.3 1030.4 0.0
24/06:00am -0.1 -4.6 -0.4 98 0.1 ENE 13 15 7 8 1030.2 1030.3 0.0
24/05:32am 1.1 -3.2 0.8 98 0.1 ENE 13 17 7 9 1030.3 1030.4 0.0
24/05:30am 1.1 -3.6 0.8 98 0.1 ENE 15 19 8 10 1030.3 1030.4 0.0
24/05:11am 0.0 -5.3 -0.4 97 0.1 E 17 17 9 9 1029.8 1029.9 0.0
24/05:10am 0.0 -5.3 -0.4 97 0.1 E 17 17 9 9 1029.9 1030.0 0.0
24/05:00am 0.3 -4.9 -0.1 97 0.1 E 17 19 9 10 1029.8 1029.9 0.0
24/04:42am 0.6 -4.6 0.2 97 0.1 E 17 17 9 9 1029.7 1029.8 0.0
24/04:41am 0.5 -4.7 0.1 97 0.1 E 17 17 9 9 1029.7 1029.8 0.0
24/04:30am 0.2 -4.3 -0.2 97 0.1 E 13 15 7 8 1029.7 1029.8 0.0
24/04:00am 1.6 -1.5 1.2 97 0.2 E 7 9 4 5 1029.7 1029.8 0.0
24/03:30am 1.0 -3.4 0.6 97 0.1 E 13 17 7 9 1029.5 1029.6 0.0
24/03:00am 0.3 -3.4 -0.3 96 0.2 E 9 13 5 7 1029.6 1029.7 0.0
24/02:30am 1.4 -2.6 0.8 96 0.2 ESE 11 13 6 7 1029.6 1029.7 0.0
24/02:29am 1.3 -2.7 0.7 96 0.2 ESE 11 13 6 7 1029.6 1029.7 0.0
24/02:15am 1.9 -1.2 1.3 96 0.2 ESE 7 9 4 5 1029.8 1029.9 0.0
24/02:00am 2.4 -1.0 1.8 96 0.2 ESE 9 9 5 5 1029.7 1029.8 0.0
24/01:51am 2.5 -0.9 1.9 96 0.2 ESE 9 9 5 5 1029.7 1029.8 0.0
24/01:45am 2.5 -0.9 1.9 96 0.2 ESE 9 13 5 7 1029.7 1029.8 0.0
24/01:42am 2.8 -0.9 2.2 96 0.2 ESE 11 13 6 7 1029.7 1029.8 0.0
24/01:39am 2.4 -1.4 1.8 96 0.2 E 11 13 6 7 1029.6 1029.7 0.0
24/01:30am 3.2 -0.1 2.6 96 0.2 E 9 11 5 6 1029.7 1029.8 0.0
24/01:21am 1.9 -2.0 1.2 95 0.3 ESE 11 15 6 8 1029.8 1029.9 0.0
24/01:20am 1.8 -2.5 1.1 95 0.3 ESE 13 15 7 8 1029.8 1029.9 0.0
24/01:00am 2.7 -1.1 2.0 95 0.3 ESE 11 13 6 7 1029.7 1029.8 0.0
24/12:30am 2.3 -1.6 1.4 94 0.3 E 11 13 6 7 1029.9 1030.0 0.0
24/12:00am 2.0 -2.7 1.0 93 0.4 E 15 17 8 9 1030.0 1030.1 0.0
 
Date/Time
EST
Temp
°C
App
Temp
°C
Dew
Point
Rel
Hum
%
Delta-T
°C
Wind Press
QNH
hPa
Press
MSL
hPa
Rain
since 9 am
mm
Dir
 
Spd
km/h
Gust
km/h
Spd
kts
Gust
kts
23/11:30pm 2.2 -1.3 1.0 92 0.5 ENE 9 11 5 6 1030.1 1030.2 0.0
23/11:00pm 3.0 -0.4 1.8 92 0.5 E 9 9 5 5 1030.2 1030.3 0.0
23/10:30pm 3.2 -1.7 2.0 92 0.5 ESE 17 17 9 9 1030.3 1030.4 0.0
23/10:00pm 3.4 -1.5 1.9 90 0.6 ESE 17 17 9 9 1030.4 1030.5 0.0
23/09:30pm 4.4 -0.1 1.9 84 1.0 ESE 15 15 8 8 1030.5 1030.6 0.0
23/09:00pm 6.7 3.9 3.3 79 1.4 SE 7 9 4 5 1030.7 1030.8 0.0
23/08:30pm 7.8 4.7 3.8 76 1.7 SE 9 11 5 6 1030.8 1030.9 0.0
23/08:00pm 7.9 4.3 3.0 71 2.1 SSE 11 15 6 8 1030.7 1030.8 0.0
23/07:30pm 7.6 4.4 2.9 72 2.0 SE 9 13 5 7 1030.6 1030.7 0.0
23/07:00pm 9.0 6.4 4.0 71 2.2 SSE 7 9 4 5 1030.4 1030.5 0.0
23/06:30pm 8.6 5.6 2.0 63 2.7 SSW 7 9 4 5 1030.3 1030.4 0.0
23/06:00pm 10.8 8.1 3.8 62 3.1 SSW 7 9 4 5 1030.1 1030.2 0.0
23/05:30pm 12.0 9.3 3.8 57 3.7 SW 7 9 4 5 1030.0 1030.1 0.0
23/05:00pm 13.4 10.9 3.5 51 4.4 SW 6 7 3 4 1030.1 1030.2 0.0
23/04:30pm 14.2 11.4 3.4 48 4.9 S 7 13 4 7 1030.0 1030.1 0.0
23/04:00pm 14.6 12.0 3.1 46 5.2 SSW 6 11 3 6 1030.2 1030.3 0.0
23/03:30pm 15.0 12.9 3.8 47 5.2 WSW 4 7 2 4 1030.2 1030.3 0.0
23/03:00pm 14.9 12.4 4.0 48 5.0 SW 6 11 3 6 1030.3 1030.4 0.0
23/02:30pm 14.2 11.5 3.7 49 4.8 SW 7 11 4 6 1030.3 1030.4 0.0
23/02:00pm 13.6 10.8 3.4 50 4.6 SSW 7 11 4 6 1030.5 1030.6 0.0
23/01:30pm 13.8 11.7 3.9 51 4.5 S 4 9 2 5 1030.7 1030.8 0.0
23/01:00pm 12.9 9.7 3.3 52 4.3 ESE 9 13 5 7 1031.0 1031.1 0.0
23/12:30pm 12.7 10.7 4.2 56 3.9 SSE 4 11 2 6 1031.6 1031.7 0.0
23/12:00pm 11.8 9.5 5.0 63 3.1 ESE 6 11 3 6 1032.1 1032.2 0.0
23/11:30am 10.9 8.4 4.8 66 2.8 S 7 9 4 5 1032.5 1032.6 0.0
23/11:00am 9.8 7.0 5.0 72 2.2 SSE 9 11 5 6 1032.7 1032.8 0.0
23/10:30am 8.9 6.3 6.0 82 1.3 SE 9 11 5 6 1032.8 1032.9 0.0
23/10:00am 7.0 4.9 6.6 97 0.2 SSW 7 9 4 5 1033.2 1033.3 0.0
23/09:30am 4.9 2.6 4.6 98 0.1 WSW 6 9 3 5 1033.4 1033.5 0.0
23/09:00am 2.4 -0.6 2.1 98 0.1 WSW 7 9 4 5 1033.2 1033.3 0.2
23/08:30am 0.5 -2.6 0.2 98 0.1 WSW 6 7 3 4 1033.0 1033.1 0.2
23/08:01am -1.2 -4.7 -1.6 97 0.1 S 7 9 4 5 1032.7 1032.8 0.2
23/08:00am -1.3 -4.8 -1.7 97 0.1 SSE 7 9 4 5 1032.7 1032.8 0.2
23/07:57am -1.6 -5.2 -2.0 97 0.1 S 7 7 4 4 1032.6 1032.7 0.2
23/07:30am -0.9 -4.2 -1.3 97 0.1 WSW 6 7 3 4 1032.6 1032.7 0.2
23/07:24am -0.9 -4.2 -1.3 97 0.1 WSW 6 7 3 4 1032.6 1032.7 0.2
23/07:23am -0.6 -3.9 -1.0 97 0.1 WSW 6 7 3 4 1032.6 1032.7 0.2
23/07:00am 0.1 -3.2 -0.2 98 0.1 SW 7 9 4 5 1032.2 1032.3 0.2
23/06:56am 0.0 -3.4 -0.4 97 0.1 SW 7 9 4 5 1032.2 1032.3 0.2
23/06:55am 0.1 -3.2 -0.2 98 0.1 SW 7 9 4 5 1032.2 1032.3 0.2
23/06:40am 0.3 -3.8 0.0 98 0.1 SSW 11 13 6 7 1031.9 1032.0 0.2
23/06:31am 0.4 -3.7 0.1 98 0.1 SSW 11 13 6 7 1031.9 1032.0 0.2
23/06:30am 0.5 -3.2 0.2 98 0.1 SSW 9 13 5 7 1031.9 1032.0 0.2
23/06:10am -1.0 -4.9 -1.4 97 0.1 SW 9 13 5 7 1031.9 1032.0 0.2
23/06:05am -1.8 -5.8 -2.2 97 0.1 SW 9 11 5 6 1031.9 1032.0 0.2
23/06:00am -1.6 -5.6 -2.0 97 0.1 SW 9 11 5 6 1031.9 1032.0 0.2
23/05:53am -0.8 -4.7 -1.2 97 0.1 WSW 9 11 5 6 1031.9 1032.0 0.2
23/05:45am 1.2 -2.8 0.8 97 0.1 WSW 11 13 6 7 1031.8 1031.9 0.2
23/05:30am 1.1 -2.5 0.7 97 0.1 WSW 9 13 5 7 1031.7 1031.8 0.2
23/05:25am 1.1 -2.5 0.7 97 0.1 WSW 9 13 5 7 1031.7 1031.8 0.2
23/05:19am 1.4 -2.1 1.0 97 0.2 WSW 9 11 5 6 1031.7 1031.8 0.2
23/05:00am 1.3 -3.0 0.9 97 0.1 WSW 13 15 7 8 1031.6 1031.7 0.2
23/04:57am 1.1 -2.9 0.7 97 0.1 WSW 11 15 6 8 1031.6 1031.7 0.2
23/04:54am 1.2 -2.8 0.8 97 0.1 WSW 11 15 6 8 1031.6 1031.7 0.2
23/04:51am 1.8 -2.1 1.4 97 0.2 WSW 11 15 6 8 1031.7 1031.8 0.2
23/04:39am 1.3 -2.7 0.7 96 0.2 W 11 15 6 8 1031.6 1031.7 0.2
23/04:30am 2.0 -1.8 1.6 97 0.2 WSW 11 13 6 7 1031.5 1031.6 0.2
23/04:14am 0.1 -4.1 -0.6 95 0.3 SW 11 15 6 8 1031.4 1031.5 0.2
23/04:09am 2.1 -1.4 1.5 96 0.2 SSW 9 11 5 6 1031.4 1031.5 0.2
23/04:07am 2.6 -0.7 2.2 97 0.2 SSW 9 11 5 6 1031.3 1031.4 0.2
23/04:00am 2.0 -1.1 1.4 96 0.2 SSW 7 9 4 5 1031.4 1031.5 0.2
23/03:47am 0.6 -2.7 -0.1 95 0.3 S 7 9 4 5 1031.3 1031.4 0.2
23/03:39am 1.8 -1.7 1.2 96 0.2 SSW 9 11 5 6 1031.3 1031.4 0.2
23/03:30am 1.6 -2.0 0.9 95 0.3 SW 9 11 5 6 1031.3 1031.4 0.2
23/03:00am 2.7 -0.3 2.0 95 0.3 SW 7 11 4 6 1031.5 1031.6 0.0
23/02:30am 2.5 -0.6 1.5 93 0.4 SSE 7 9 4 5 1031.6 1031.7 0.0
23/02:00am 4.2 0.6 3.2 93 0.4 SSE 11 11 6 6 1031.7 1031.8 0.0
23/01:30am 1.9 -1.7 0.4 90 0.6 S 9 13 5 7 1031.8 1031.9 0.0
23/01:00am 4.5 2.0 3.5 93 0.4 SE 6 9 3 5 1031.8 1031.9 0.0
23/12:30am 2.5 0.7 1.2 91 0.5 CALM 0 7 0 4 1031.9 1032.0 0.0
23/12:00am 4.6 1.1 3.4 92 0.5 SSE 11 13 6 7 1031.8 1031.9 0.0
 
Date/Time
EST
Temp
°C
App
Temp
°C
Dew
Point
Rel
Hum
%
Delta-T
°C
Wind Press
QNH
hPa
Press
MSL
hPa
Rain
since 9 am
mm
Dir
 
Spd
km/h
Gust
km/h
Spd
kts
Gust
kts
22/11:30pm 1.8 -1.5 0.0 88 0.7 SW 7 9 4 5 1031.8 1031.9 0.0
22/11:00pm 4.6 0.6 3.1 90 0.6 SSE 13 15 7 8 1031.9 1032.0 0.0
22/10:30pm 4.2 0.5 2.6 89 0.6 SSE 11 13 6 7 1032.2 1032.3 0.0
22/10:00pm 5.1 1.1 3.0 86 0.9 SSE 13 17 7 9 1032.1 1032.2 0.0
22/09:30pm 5.1 1.2 3.4 89 0.7 SSE 13 15 7 8 1032.0 1032.1 0.0
22/09:00pm 3.8 -0.3 2.0 88 0.7 SE 13 15 7 8 1031.8 1031.9 0.0
22/08:30pm 5.6 1.2 2.8 82 1.2 S 15 15 8 8 1031.7 1031.8 0.0
22/08:00pm 6.1 2.2 3.3 82 1.2 SSE 13 17 7 9 1031.7 1031.8 0.0
22/07:30pm 6.6 1.9 3.4 80 1.4 SSE 17 17 9 9 1031.6 1031.7 0.0
22/07:00pm 8.5 3.6 4.3 75 1.8 SSE 19 24 10 13 1031.4 1031.5 0.0
22/06:30pm 9.0 4.5 4.4 73 2.0 SSE 17 20 9 11 1031.0 1031.1 0.0
22/06:00pm 10.0 5.0 4.4 68 2.5 SSE 20 28 11 15 1030.7 1030.8 0.0
22/05:30pm 11.2 6.3 4.9 65 2.9 SSE 20 26 11 14 1030.4 1030.5 0.0
22/05:00pm 12.9 7.6 5.1 59 3.6 S 22 28 12 15 1030.1 1030.2 0.0
22/04:30pm 14.1 9.2 5.2 55 4.2 S 20 26 11 14 1029.9 1030.0 0.0
22/04:00pm 14.8 10.0 5.6 54 4.4 SSE 20 26 11 14 1029.6 1029.7 0.0
22/03:30pm 15.1 10.4 5.9 54 4.4 SSE 20 30 11 16 1029.5 1029.6 0.0
22/03:00pm 15.2 10.5 6.0 54 4.4 SSE 20 26 11 14 1029.3 1029.4 0.0
22/02:30pm 15.4 9.9 6.1 54 4.5 S 24 33 13 18 1029.3 1029.4 0.0
22/02:00pm 15.5 10.4 6.2 54 4.5 S 22 28 12 15 1029.3 1029.4 0.0
22/01:30pm 15.3 10.3 6.6 56 4.3 S 22 28 12 15 1029.5 1029.6 0.0
22/01:00pm 15.3 10.8 7.1 58 4.0 S 20 28 11 15 1029.4 1029.5 0.0
22/12:30pm 14.9 10.3 6.7 58 4.0 SSE 20 30 11 16 1029.6 1029.7 0.0
22/12:00pm 15.1 10.7 7.2 59 3.9 SSE 20 26 11 14 1029.9 1030.0 0.0
22/11:30am 14.3 10.0 6.9 61 3.6 SSE 19 24 10 13 1030.2 1030.3 0.0
22/11:00am 13.9 9.5 7.4 65 3.2 S 20 28 11 15 1030.3 1030.4 0.0
22/10:30am 12.9 8.9 8.2 73 2.3 S 19 24 10 13 1030.2 1030.3 0.0
22/10:00am 12.5 8.3 8.4 76 2.0 S 20 28 11 15 1030.0 1030.1 0.0
22/09:30am 11.4 7.4 8.1 80 1.6 SSW 19 24 10 13 1029.9 1030.0 0.0
22/09:00am 10.1 6.3 7.5 84 1.2 SSW 17 20 9 11 1029.7 1029.8 0.0
22/08:30am 9.0 5.1 7.3 89 0.8 SSW 17 20 9 11 1029.5 1029.6 -
22/08:00am 8.4 4.4 6.5 88 0.9 SSW 17 20 9 11 1029.2 1029.3 -
22/07:30am 7.9 4.2 6.5 91 0.6 SSW 15 20 8 11 1028.8 1029.0 -
22/07:00am 8.7 4.4 7.2 90 0.7 SSW 19 20 10 11 1028.6 1028.8 -
22/06:30am 8.3 3.8 6.9 91 0.7 SSW 20 24 11 13 1028.2 1028.4 -
22/06:00am 7.6 3.2 6.5 93 0.5 SW 19 22 10 12 1027.9 1028.1 -
22/05:30am 6.9 2.2 6.0 94 0.4 SSW 20 22 11 12 1027.7 1027.8 -
22/05:00am 6.8 3.4 5.7 93 0.5 SW 13 17 7 9 1027.5 1027.6 -
22/04:30am 6.8 2.2 5.7 93 0.5 SSW 19 20 10 11 1027.4 1027.5 -
22/04:00am 7.6 3.5 6.2 91 0.6 SSW 17 20 9 11 1027.2 1027.3 -
22/03:30am 7.2 3.0 5.8 91 0.6 SSW 17 20 9 11 1027.3 1027.4 -
22/03:00am 7.5 4.1 6.1 91 0.6 SW 13 17 7 9 1027.4 1027.5 0.0
22/02:30am 8.1 3.7 6.6 90 0.7 SSW 19 22 10 12 1027.2 1027.3 -
22/02:00am 8.8 4.3 7.1 89 0.8 S 20 28 11 15 1027.1 1027.2 -
22/01:30am 7.7 3.3 6.5 92 0.6 SW 19 24 10 13 1026.9 1027.0 -
22/01:00am 8.4 4.0 7.3 93 0.5 SW 20 24 11 13 1026.8 1026.9 -
22/12:30am 7.8 3.2 6.6 92 0.6 SW 20 24 11 13 1026.8 1026.9 -
22/12:00am 7.5 3.1 6.6 94 0.4 SW 19 22 10 12 1026.9 1027.0 -
 
Date/Time
EST
Temp
°C
App
Temp
°C
Dew
Point
Rel
Hum
%
Delta-T
°C
Wind Press
QNH
hPa
Press
MSL
hPa
Rain
since 9 am
mm
Dir
 
Spd
km/h
Gust
km/h
Spd
kts
Gust
kts
21/11:30pm 7.6 3.6 6.5 93 0.5 WSW 17 19 9 10 1026.8 1026.9 -
21/11:00pm 8.3 3.8 7.1 92 0.6 SW 20 24 11 13 1026.8 1026.9 -
21/10:30pm 8.3 3.9 7.4 94 0.4 SSW 20 24 11 13 1026.7 1026.8 -
21/10:00pm 8.7 4.9 7.6 93 0.5 SW 17 20 9 11 1026.8 1026.9 -
21/09:30pm 9.0 4.6 7.6 91 0.7 SW 20 24 11 13 1026.7 1026.8 -
21/09:00pm 9.0 5.5 7.3 89 0.8 SW 15 20 8 11 1026.7 1026.8 0.0
21/08:30pm 9.6 5.4 7.5 87 1.0 SSW 19 20 10 11 1026.5 1026.6 -
21/08:00pm 10.1 6.0 7.7 85 1.2 SSW 19 22 10 12 1026.4 1026.5 -
21/07:30pm 10.1 6.0 7.7 85 1.2 SW 19 22 10 12 1026.2 1026.3 -
21/07:00pm 10.6 6.5 7.8 83 1.4 SSW 19 22 10 12 1026.1 1026.2 -
21/06:30pm 11.1 6.8 7.8 80 1.6 SSW 20 24 11 13 1025.8 1025.9 -
21/06:00pm 11.0 6.6 7.3 78 1.8 SSW 20 24 11 13 1025.4 1025.5 -

Other Formats:

Comma delimited format used in spreadsheet applications
http://www.bom.gov.au/fwo/IDV60801/IDV60801.95839.axf

JavaScript Object Notation format (JSON) in row-major order
http://www.bom.gov.au/fwo/IDV60801/IDV60801.95839.json